PWSweather.com
Personal Weather Stations
Station Observations

YeovilGB

Lat: 50.949, Lon: -2.627

Elevation: 70

Station Type: Vantage Pro

http://www.yeovil-weather.me.uk/

High Low Average
Temperature 46.0°F7.8°C 41.9°F5.5°C 43.7°F6.5°C
Dew Point 41.9°F5.5°C 38.2°F3.4°C 40.3°F4.6°C
Winds 11.5 mph 18.5 kmh Calm Calm 4.0 mph SE6.4 kmh SE
Wind Gusts 18.4 mph29.6 kmh -- 9.0 mph14.5 kmh
Humidity 90% 85% 88%
Pressure 30.13 in1020.3 mb 29.98 in1015.2 mb -
Precipitation 0.00 in0.0 mm - -
Hour Temp Dew Point Humidity Winds Wind Gusts Pressure Precip Precip Rate Daily Precip Total
12:00 AM 43.6°F6.4°C 40.6°F4.8°C 89% 11.5 mph SE18.5 kmh SE 16.1 mph25.9 kmh 30.13 in1020.3 mb - 0.00 in0.0 mm 0.00 in0.0 mm
12:10 AM 43.5°F6.4°C 40.2°F4.6°C 88% 3.5 mph SE5.6 kmh SE 6.9 mph11.1 kmh 30.13 in1020.3 mb - 0.00 in0.0 mm 0.00 in0.0 mm
12:20 AM 43.3°F6.3°C 40.0°F4.4°C 88% 6.9 mph SE11.1 kmh SE 10.4 mph16.7 kmh 30.13 in1020.3 mb - 0.00 in0.0 mm 0.00 in0.0 mm
12:30 AM 43.2°F6.2°C 39.9°F4.4°C 88% 4.6 mph SE7.4 kmh SE 9.2 mph14.8 kmh 30.12 in1020.0 mb - 0.00 in0.0 mm 0.00 in0.0 mm
12:40 AM 43.2°F6.2°C 39.6°F4.2°C 87% 6.9 mph SE11.1 kmh SE 15.0 mph24.1 kmh 30.12 in1020.0 mb - 0.00 in0.0 mm 0.00 in0.0 mm
12:50 AM 43.2°F6.2°C 39.6°F4.2°C 87% 6.9 mph SE11.1 kmh SE 11.5 mph18.5 kmh 30.11 in1019.6 mb - 0.00 in0.0 mm 0.00 in0.0 mm
01:00 AM 43.1°F6.2°C 39.5°F4.2°C 87% 5.8 mph SE9.3 kmh SE 10.4 mph16.7 kmh 30.11 in1019.6 mb - 0.00 in0.0 mm 0.00 in0.0 mm
01:10 AM 43.0°F6.1°C 39.7°F4.3°C 88% 5.8 mph SE9.3 kmh SE 10.4 mph16.7 kmh 30.11 in1019.6 mb - 0.00 in0.0 mm 0.00 in0.0 mm
01:20 AM 42.9°F6.1°C 39.6°F4.2°C 88% 4.6 mph SE7.4 kmh SE 11.5 mph18.5 kmh 30.10 in1019.3 mb - 0.00 in0.0 mm 0.00 in0.0 mm
01:30 AM 42.9°F6.1°C 39.6°F4.2°C 88% 3.5 mph SSE5.6 kmh SSE 10.4 mph16.7 kmh 30.10 in1019.3 mb - 0.00 in0.0 mm 0.00 in0.0 mm
01:40 AM 42.8°F6.0°C 39.5°F4.2°C 88% 9.2 mph SE14.8 kmh SE 10.4 mph16.7 kmh 30.09 in1019.0 mb - 0.00 in0.0 mm 0.00 in0.0 mm
01:50 AM 42.8°F6.0°C 39.5°F4.2°C 88% 3.5 mph SSE5.6 kmh SSE 8.1 mph13.0 kmh 30.09 in1019.0 mb - 0.00 in0.0 mm 0.00 in0.0 mm
02:00 AM 42.7°F5.9°C 39.4°F4.1°C 88% 6.9 mph SE11.1 kmh SE 9.2 mph14.8 kmh 30.09 in1019.0 mb - 0.00 in0.0 mm 0.00 in0.0 mm
02:10 AM 42.6°F5.9°C 39.0°F3.9°C 87% 6.9 mph SSE11.1 kmh SSE 11.5 mph18.5 kmh 30.09 in1019.0 mb - 0.00 in0.0 mm 0.00 in0.0 mm
02:20 AM 42.5°F5.8°C 38.6°F3.7°C 86% 2.3 mph SSE3.7 kmh SSE 6.9 mph11.1 kmh 30.09 in1019.0 mb - 0.00 in0.0 mm 0.00 in0.0 mm
02:30 AM 42.4°F5.8°C 38.2°F3.4°C 85% 5.8 mph SE9.3 kmh SE 10.4 mph16.7 kmh 30.09 in1019.0 mb - 0.00 in0.0 mm 0.00 in0.0 mm
02:40 AM 42.4°F5.8°C 38.5°F3.6°C 86% 4.6 mph SE7.4 kmh SE 8.1 mph13.0 kmh 30.09 in1019.0 mb - 0.00 in0.0 mm 0.00 in0.0 mm
02:50 AM 42.4°F5.8°C 38.5°F3.6°C 86% 3.5 mph SE5.6 kmh SE 11.5 mph18.5 kmh 30.08 in1018.6 mb - 0.00 in0.0 mm 0.00 in0.0 mm
03:00 AM 42.3°F5.7°C 38.4°F3.6°C 86% 8.1 mph SSE13.0 kmh SSE 11.5 mph18.5 kmh 30.08 in1018.6 mb - 0.00 in0.0 mm 0.00 in0.0 mm
03:10 AM 42.3°F5.7°C 38.7°F3.7°C 87% 4.6 mph SE7.4 kmh SE 8.1 mph13.0 kmh 30.08 in1018.6 mb - 0.00 in0.0 mm 0.00 in0.0 mm
03:20 AM 42.2°F5.7°C 38.6°F3.7°C 87% 3.5 mph SE5.6 kmh SE 11.5 mph18.5 kmh 30.08 in1018.6 mb - 0.00 in0.0 mm 0.00 in0.0 mm
03:30 AM 42.2°F5.7°C 38.6°F3.7°C 87% 4.6 mph ESE7.4 kmh ESE 10.4 mph16.7 kmh 30.07 in1018.3 mb - 0.00 in0.0 mm 0.00 in0.0 mm
03:40 AM 42.2°F5.7°C 38.6°F3.7°C 87% 1.2 mph SE1.9 kmh SE 10.4 mph16.7 kmh 30.07 in1018.3 mb - 0.00 in0.0 mm 0.00 in0.0 mm
03:50 AM 42.2°F5.7°C 38.9°F3.8°C 88% 6.9 mph SE11.1 kmh SE 15.0 mph24.1 kmh 30.07 in1018.3 mb - 0.00 in0.0 mm 0.00 in0.0 mm
04:00 AM 42.2°F5.7°C 38.9°F3.8°C 88% 6.9 mph SE11.1 kmh SE 10.4 mph16.7 kmh 30.06 in1017.9 mb - 0.00 in0.0 mm 0.00 in0.0 mm
04:10 AM 42.3°F5.7°C 39.0°F3.9°C 88% 6.9 mph SSE11.1 kmh SSE 10.4 mph16.7 kmh 30.06 in1017.9 mb - 0.00 in0.0 mm 0.00 in0.0 mm
04:20 AM 42.3°F5.7°C 39.0°F3.9°C 88% 1.2 mph SSE1.9 kmh SSE 5.8 mph9.3 kmh 30.06 in1017.9 mb - 0.00 in0.0 mm 0.00 in0.0 mm
04:30 AM 42.3°F5.7°C 39.0°F3.9°C 88% 5.8 mph SE9.3 kmh SE 9.2 mph14.8 kmh 30.05 in1017.6 mb - 0.00 in0.0 mm 0.00 in0.0 mm
04:40 AM 42.3°F5.7°C 39.0°F3.9°C 88% 6.9 mph SE11.1 kmh SE 12.7 mph20.4 kmh 30.05 in1017.6 mb - 0.00 in0.0 mm 0.00 in0.0 mm
04:50 AM 42.3°F5.7°C 38.7°F3.7°C 87% 4.6 mph SE7.4 kmh SE 8.1 mph13.0 kmh 30.05 in1017.6 mb - 0.00 in0.0 mm 0.00 in0.0 mm
05:00 AM 42.2°F5.7°C 38.6°F3.7°C 87% 3.5 mph SE5.6 kmh SE 6.9 mph11.1 kmh 30.05 in1017.6 mb - 0.00 in0.0 mm 0.00 in0.0 mm
05:10 AM 42.2°F5.7°C 38.6°F3.7°C 87% 4.6 mph SE7.4 kmh SE 11.5 mph18.5 kmh 30.04 in1017.3 mb - 0.00 in0.0 mm 0.00 in0.0 mm
05:20 AM 42.2°F5.7°C 38.6°F3.7°C 87% 2.3 mph SSE3.7 kmh SSE 9.2 mph14.8 kmh 30.05 in1017.6 mb - 0.00 in0.0 mm 0.00 in0.0 mm
05:30 AM 42.2°F5.7°C 38.9°F3.8°C 88% 5.8 mph SE9.3 kmh SE 9.2 mph14.8 kmh 30.04 in1017.3 mb - 0.00 in0.0 mm 0.00 in0.0 mm
05:40 AM 42.2°F5.7°C 38.9°F3.8°C 88% 9.2 mph SE14.8 kmh SE 10.4 mph16.7 kmh 30.04 in1017.3 mb - 0.00 in0.0 mm 0.00 in0.0 mm
05:50 AM 42.1°F5.6°C 38.8°F3.8°C 88% 5.8 mph SSE9.3 kmh SSE 12.7 mph20.4 kmh 30.04 in1017.3 mb - 0.00 in0.0 mm 0.00 in0.0 mm
06:00 AM 42.0°F5.6°C 38.7°F3.7°C 88% 6.9 mph SSE11.1 kmh SSE 15.0 mph24.1 kmh 30.04 in1017.3 mb - 0.00 in0.0 mm 0.00 in0.0 mm
06:10 AM 41.9°F5.5°C 38.6°F3.7°C 88% 8.1 mph SE13.0 kmh SE 12.7 mph20.4 kmh 30.04 in1017.3 mb - 0.00 in0.0 mm 0.00 in0.0 mm
06:20 AM 41.9°F5.5°C 38.3°F3.5°C 87% 6.9 mph SE11.1 kmh SE 10.4 mph16.7 kmh 30.04 in1017.3 mb - 0.00 in0.0 mm 0.00 in0.0 mm
06:30 AM 41.9°F5.5°C 38.3°F3.5°C 87% 3.5 mph SE5.6 kmh SE 6.9 mph11.1 kmh 30.03 in1016.9 mb - 0.00 in0.0 mm 0.00 in0.0 mm
06:40 AM 41.9°F5.5°C 38.3°F3.5°C 87% 2.3 mph SE3.7 kmh SE 9.2 mph14.8 kmh 30.03 in1016.9 mb - 0.00 in0.0 mm 0.00 in0.0 mm
06:50 AM 42.0°F5.6°C 38.4°F3.6°C 87% 2.3 mph ESE3.7 kmh ESE 1.2 mph1.9 kmh 30.03 in1016.9 mb - 0.00 in0.0 mm 0.00 in0.0 mm
07:00 AM 42.0°F5.6°C 38.4°F3.6°C 87% 2.3 mph SE3.7 kmh SE 8.1 mph13.0 kmh 30.03 in1016.9 mb - 0.00 in0.0 mm 0.00 in0.0 mm
07:10 AM 42.1°F5.6°C 38.5°F3.6°C 87% 2.3 mph SE3.7 kmh SE 3.5 mph5.6 kmh 30.03 in1016.9 mb - 0.00 in0.0 mm 0.00 in0.0 mm
07:20 AM 42.1°F5.6°C 38.5°F3.6°C 87% 5.8 mph SE9.3 kmh SE 11.5 mph18.5 kmh 30.02 in1016.6 mb - 0.00 in0.0 mm 0.00 in0.0 mm
07:30 AM 42.1°F5.6°C 38.5°F3.6°C 87% 4.6 mph SSE7.4 kmh SSE 8.1 mph13.0 kmh 30.02 in1016.6 mb - 0.00 in0.0 mm 0.00 in0.0 mm
07:40 AM 42.1°F5.6°C 38.8°F3.8°C 88% 1.2 mph ESE1.9 kmh ESE 5.8 mph9.3 kmh 30.02 in1016.6 mb - 0.00 in0.0 mm 0.00 in0.0 mm
07:50 AM 42.2°F5.7°C 38.9°F3.8°C 88% Calm Calm 11.5 mph18.5 kmh 30.02 in1016.6 mb - 0.00 in0.0 mm 0.00 in0.0 mm
08:00 AM 42.3°F5.7°C 39.0°F3.9°C 88% 4.6 mph SE7.4 kmh SE 11.5 mph18.5 kmh 30.02 in1016.6 mb - 0.00 in0.0 mm 0.00 in0.0 mm
08:10 AM 42.5°F5.8°C 39.2°F4.0°C 88% 3.5 mph SE5.6 kmh SE 6.9 mph11.1 kmh 30.02 in1016.6 mb - 0.00 in0.0 mm 0.00 in0.0 mm
08:20 AM 42.6°F5.9°C 39.3°F4.1°C 88% 6.9 mph SE11.1 kmh SE 12.7 mph20.4 kmh 30.03 in1016.9 mb - 0.00 in0.0 mm 0.00 in0.0 mm
08:30 AM 42.9°F6.1°C 39.6°F4.2°C 88% 5.8 mph SE9.3 kmh SE 15.0 mph24.1 kmh 30.02 in1016.6 mb - 0.00 in0.0 mm 0.00 in0.0 mm
08:40 AM 43.0°F6.1°C 39.7°F4.3°C 88% 8.1 mph SSE13.0 kmh SSE 11.5 mph18.5 kmh 30.03 in1016.9 mb - 0.00 in0.0 mm 0.00 in0.0 mm
08:50 AM 43.2°F6.2°C 39.9°F4.4°C 88% 5.8 mph SE9.3 kmh SE 9.2 mph14.8 kmh 30.03 in1016.9 mb - 0.00 in0.0 mm 0.00 in0.0 mm
09:00 AM 43.4°F6.3°C 40.1°F4.5°C 88% 6.9 mph SE11.1 kmh SE 11.5 mph18.5 kmh 30.03 in1016.9 mb - 0.00 in0.0 mm 0.00 in0.0 mm
09:10 AM 43.5°F6.4°C 39.9°F4.4°C 87% 6.9 mph SE11.1 kmh SE 11.5 mph18.5 kmh 30.03 in1016.9 mb - 0.00 in0.0 mm 0.00 in0.0 mm
09:20 AM 43.6°F6.4°C 40.0°F4.4°C 87% 6.9 mph SSE11.1 kmh SSE 12.7 mph20.4 kmh 30.03 in1016.9 mb - 0.00 in0.0 mm 0.00 in0.0 mm
09:30 AM 43.8°F6.6°C 40.2°F4.6°C 87% 9.2 mph SE14.8 kmh SE 16.1 mph25.9 kmh 30.03 in1016.9 mb - 0.00 in0.0 mm 0.00 in0.0 mm
09:40 AM 43.9°F6.6°C 40.3°F4.6°C 87% 8.1 mph SE13.0 kmh SE 10.4 mph16.7 kmh 30.03 in1016.9 mb - 0.00 in0.0 mm 0.00 in0.0 mm
09:50 AM 44.0°F6.7°C 40.4°F4.7°C 87% 8.1 mph SE13.0 kmh SE 11.5 mph18.5 kmh 30.03 in1016.9 mb - 0.00 in0.0 mm 0.00 in0.0 mm
10:00 AM 44.1°F6.7°C 40.5°F4.7°C 87% 4.6 mph SE7.4 kmh SE 8.1 mph13.0 kmh 30.03 in1016.9 mb - 0.00 in0.0 mm 0.00 in0.0 mm
10:10 AM 44.2°F6.8°C 40.5°F4.7°C 87% 5.8 mph SE9.3 kmh SE 8.1 mph13.0 kmh 30.03 in1016.9 mb - 0.00 in0.0 mm 0.00 in0.0 mm
10:20 AM 44.2°F6.8°C 40.6°F4.8°C 87% 8.1 mph SSE13.0 kmh SSE 12.7 mph20.4 kmh 30.03 in1016.9 mb - 0.00 in0.0 mm 0.00 in0.0 mm
10:30 AM 44.3°F6.8°C 40.7°F4.8°C 87% 5.8 mph SE9.3 kmh SE 8.1 mph13.0 kmh 30.03 in1016.9 mb - 0.00 in0.0 mm 0.00 in0.0 mm
10:40 AM 44.5°F6.9°C 41.2°F5.1°C 88% 6.9 mph SE11.1 kmh SE 9.2 mph14.8 kmh 30.03 in1016.9 mb - 0.00 in0.0 mm 0.00 in0.0 mm
10:50 AM 44.7°F7.1°C 41.1°F5.1°C 87% 8.1 mph SSE13.0 kmh SSE 12.7 mph20.4 kmh 30.03 in1016.9 mb - 0.00 in0.0 mm 0.00 in0.0 mm
11:00 AM 44.9°F7.2°C 41.2°F5.1°C 87% 5.8 mph SSE9.3 kmh SSE 11.5 mph18.5 kmh 30.03 in1016.9 mb - 0.00 in0.0 mm 0.00 in0.0 mm
11:10 AM 45.0°F7.2°C 41.4°F5.2°C 87% 8.1 mph SE13.0 kmh SE 13.8 mph22.2 kmh 30.02 in1016.6 mb - 0.00 in0.0 mm 0.00 in0.0 mm
11:20 AM 45.3°F7.4°C 41.6°F5.3°C 87% 5.8 mph SE9.3 kmh SE 13.8 mph22.2 kmh 30.02 in1016.6 mb - 0.00 in0.0 mm 0.00 in0.0 mm
11:30 AM 45.6°F7.6°C 41.6°F5.3°C 86% 6.9 mph SSE11.1 kmh SSE 18.4 mph29.6 kmh 30.02 in1016.6 mb - 0.00 in0.0 mm 0.00 in0.0 mm
11:40 AM 45.8°F7.7°C 41.9°F5.5°C 86% 5.8 mph S9.3 kmh S 9.2 mph14.8 kmh 30.02 in1016.6 mb - 0.00 in0.0 mm 0.00 in0.0 mm
11:50 AM 45.9°F7.7°C 41.9°F5.5°C 86% 6.9 mph SE11.1 kmh SE 11.5 mph18.5 kmh 30.02 in1016.6 mb - 0.00 in0.0 mm 0.00 in0.0 mm
12:00 PM 45.9°F7.7°C 41.6°F5.3°C 85% 5.8 mph SE9.3 kmh SE 11.5 mph18.5 kmh 30.01 in1016.3 mb - 0.00 in0.0 mm 0.00 in0.0 mm
12:10 PM 45.9°F7.7°C 41.6°F5.3°C 85% 4.6 mph SE7.4 kmh SE 9.2 mph14.8 kmh 30.01 in1016.3 mb - 0.00 in0.0 mm 0.00 in0.0 mm
12:20 PM 45.9°F7.7°C 41.6°F5.3°C 85% 9.2 mph SE14.8 kmh SE 11.5 mph18.5 kmh 30.00 in1015.9 mb - 0.00 in0.0 mm 0.00 in0.0 mm
12:30 PM 45.9°F7.7°C 41.7°F5.4°C 85% 4.6 mph SE7.4 kmh SE 11.5 mph18.5 kmh 30.01 in1016.3 mb - 0.00 in0.0 mm 0.00 in0.0 mm
12:40 PM 46.0°F7.8°C 41.7°F5.4°C 85% 6.9 mph SE11.1 kmh SE 11.5 mph18.5 kmh 30.01 in1016.3 mb - 0.00 in0.0 mm 0.00 in0.0 mm
12:50 PM 46.0°F7.8°C 41.7°F5.4°C 85% 8.1 mph SSE13.0 kmh SSE 10.4 mph16.7 kmh 30.01 in1016.3 mb - 0.00 in0.0 mm 0.00 in0.0 mm
01:00 PM 45.9°F7.7°C 41.6°F5.3°C 85% 6.9 mph SSE11.1 kmh SSE 11.5 mph18.5 kmh 30.00 in1015.9 mb - 0.00 in0.0 mm 0.00 in0.0 mm
01:10 PM 45.9°F7.7°C 41.6°F5.3°C 85% 6.9 mph SE11.1 kmh SE 15.0 mph24.1 kmh 30.00 in1015.9 mb - 0.00 in0.0 mm 0.00 in0.0 mm
01:20 PM 45.9°F7.7°C 41.6°F5.3°C 85% 6.9 mph SE11.1 kmh SE 16.1 mph25.9 kmh 30.00 in1015.9 mb - 0.00 in0.0 mm 0.00 in0.0 mm
01:30 PM 45.8°F7.7°C 41.5°F5.3°C 85% 6.9 mph SSE11.1 kmh SSE 10.4 mph16.7 kmh 30.00 in1015.9 mb - 0.00 in0.0 mm 0.00 in0.0 mm
01:40 PM 45.8°F7.7°C 41.5°F5.3°C 85% 6.9 mph SE11.1 kmh SE 13.8 mph22.2 kmh 30.00 in1015.9 mb - 0.00 in0.0 mm 0.00 in0.0 mm
01:50 PM 45.8°F7.7°C 41.5°F5.3°C 85% 5.8 mph SE9.3 kmh SE 11.5 mph18.5 kmh 30.00 in1015.9 mb - 0.00 in0.0 mm 0.00 in0.0 mm
02:00 PM 45.8°F7.7°C 41.9°F5.5°C 86% 6.9 mph SE11.1 kmh SE 10.4 mph16.7 kmh 29.99 in1015.6 mb - 0.00 in0.0 mm 0.00 in0.0 mm
02:10 PM 45.8°F7.7°C 41.8°F5.4°C 86% 6.9 mph SE11.1 kmh SE 15.0 mph24.1 kmh 29.99 in1015.6 mb - 0.00 in0.0 mm 0.00 in0.0 mm
02:20 PM 45.7°F7.6°C 41.8°F5.4°C 86% 9.2 mph SSE14.8 kmh SSE 11.5 mph18.5 kmh 29.99 in1015.6 mb - 0.00 in0.0 mm 0.00 in0.0 mm
02:30 PM 45.6°F7.6°C 41.7°F5.4°C 86% 2.3 mph ESE3.7 kmh ESE 9.2 mph14.8 kmh 29.99 in1015.6 mb - 0.00 in0.0 mm 0.00 in0.0 mm
02:40 PM 45.6°F7.6°C 41.7°F5.4°C 86% 5.8 mph SE9.3 kmh SE 5.8 mph9.3 kmh 29.99 in1015.6 mb - 0.00 in0.0 mm 0.00 in0.0 mm
02:50 PM 45.6°F7.6°C 41.6°F5.3°C 86% 2.3 mph SE3.7 kmh SE 6.9 mph11.1 kmh 29.99 in1015.6 mb - 0.00 in0.0 mm 0.00 in0.0 mm
03:00 PM 45.4°F7.4°C 41.5°F5.3°C 86% Calm Calm 9.2 mph14.8 kmh 29.99 in1015.6 mb - 0.00 in0.0 mm 0.00 in0.0 mm
03:10 PM 45.4°F7.4°C 41.5°F5.3°C 86% 5.8 mph SE9.3 kmh SE 11.5 mph18.5 kmh 29.99 in1015.6 mb - 0.00 in0.0 mm 0.00 in0.0 mm
03:20 PM 45.3°F7.4°C 41.4°F5.2°C 86% 2.3 mph ESE3.7 kmh ESE 11.5 mph18.5 kmh 29.99 in1015.6 mb - 0.00 in0.0 mm 0.00 in0.0 mm
03:30 PM 45.3°F7.4°C 41.6°F5.3°C 87% 4.6 mph SE7.4 kmh SE 8.1 mph13.0 kmh 29.99 in1015.6 mb - 0.00 in0.0 mm 0.00 in0.0 mm
03:40 PM 45.2°F7.3°C 41.6°F5.3°C 87% 4.6 mph SE7.4 kmh SE 12.7 mph20.4 kmh 29.99 in1015.6 mb - 0.00 in0.0 mm 0.00 in0.0 mm
03:50 PM 45.2°F7.3°C 41.6°F5.3°C 87% 2.3 mph SE3.7 kmh SE 6.9 mph11.1 kmh 29.99 in1015.6 mb - 0.00 in0.0 mm 0.00 in0.0 mm
04:00 PM 45.1°F7.3°C 41.5°F5.3°C 87% 4.6 mph E7.4 kmh E 11.5 mph18.5 kmh 29.99 in1015.6 mb - 0.00 in0.0 mm 0.00 in0.0 mm
04:10 PM 45.0°F7.2°C 41.4°F5.2°C 87% 1.2 mph ESE1.9 kmh ESE 8.1 mph13.0 kmh 29.99 in1015.6 mb - 0.00 in0.0 mm 0.00 in0.0 mm
04:20 PM 44.9°F7.2°C 41.6°F5.3°C 88% 2.3 mph E3.7 kmh E 5.8 mph9.3 kmh 29.98 in1015.2 mb - 0.00 in0.0 mm 0.00 in0.0 mm
04:30 PM 44.8°F7.1°C 41.5°F5.3°C 88% 4.6 mph ESE7.4 kmh ESE 8.1 mph13.0 kmh 29.99 in1015.6 mb - 0.00 in0.0 mm 0.00 in0.0 mm
04:40 PM 44.7°F7.1°C 41.7°F5.4°C 89% 2.3 mph ESE3.7 kmh ESE 9.2 mph14.8 kmh 29.99 in1015.6 mb - 0.00 in0.0 mm 0.00 in0.0 mm
04:50 PM 44.6°F7.0°C 41.6°F5.3°C 89% 2.3 mph ESE3.7 kmh ESE 9.2 mph14.8 kmh 30.00 in1015.9 mb - 0.00 in0.0 mm 0.00 in0.0 mm
05:00 PM 44.6°F7.0°C 41.8°F5.4°C 90% 1.2 mph E1.9 kmh E 9.2 mph14.8 kmh 30.00 in1015.9 mb - 0.00 in0.0 mm 0.00 in0.0 mm
05:20 PM 44.4°F6.9°C 41.7°F5.4°C 90% 2.3 mph SE3.7 kmh SE 5.8 mph9.3 kmh 30.00 in1015.9 mb - 0.00 in0.0 mm 0.00 in0.0 mm
05:30 PM 44.3°F6.8°C 41.6°F5.3°C 90% 2.3 mph ESE3.7 kmh ESE 10.4 mph16.7 kmh 30.00 in1015.9 mb - 0.00 in0.0 mm 0.00 in0.0 mm
05:40 PM 44.2°F6.8°C 41.5°F5.3°C 90% 1.2 mph SE1.9 kmh SE 9.2 mph14.8 kmh 30.00 in1015.9 mb - 0.00 in0.0 mm 0.00 in0.0 mm
05:50 PM 44.2°F6.8°C 41.5°F5.3°C 90% 4.6 mph SE7.4 kmh SE 12.7 mph20.4 kmh 30.01 in1016.3 mb - 0.00 in0.0 mm 0.00 in0.0 mm
06:00 PM 44.2°F6.8°C 41.5°F5.3°C 90% 2.3 mph SE3.7 kmh SE 8.1 mph13.0 kmh 30.01 in1016.3 mb - 0.00 in0.0 mm 0.00 in0.0 mm
06:10 PM 44.2°F6.8°C 41.5°F5.3°C 90% Calm Calm 9.2 mph14.8 kmh 30.02 in1016.6 mb - 0.00 in0.0 mm 0.00 in0.0 mm
06:20 PM 44.2°F6.8°C 41.5°F5.3°C 90% 2.3 mph ESE3.7 kmh ESE 5.8 mph9.3 kmh 30.02 in1016.6 mb - 0.00 in0.0 mm 0.00 in0.0 mm
06:30 PM 44.2°F6.8°C 41.5°F5.3°C 90% 2.3 mph E3.7 kmh E 5.8 mph9.3 kmh 30.02 in1016.6 mb - 0.00 in0.0 mm 0.00 in0.0 mm
06:40 PM 44.2°F6.8°C 41.5°F5.3°C 90% Calm Calm 2.3 mph3.7 kmh 30.01 in1016.3 mb - 0.00 in0.0 mm 0.00 in0.0 mm
06:50 PM 44.1°F6.7°C 41.4°F5.2°C 90% 4.6 mph E7.4 kmh E 6.9 mph11.1 kmh 30.02 in1016.6 mb - 0.00 in0.0 mm 0.00 in0.0 mm
07:00 PM 44.1°F6.7°C 41.4°F5.2°C 90% 3.5 mph E5.6 kmh E 11.5 mph18.5 kmh 30.02 in1016.6 mb - 0.00 in0.0 mm 0.00 in0.0 mm
07:10 PM 44.0°F6.7°C 41.3°F5.2°C 90% Calm Calm 3.5 mph5.6 kmh 30.02 in1016.6 mb - 0.00 in0.0 mm 0.00 in0.0 mm
07:20 PM 44.0°F6.7°C 41.3°F5.2°C 90% 1.2 mph E1.9 kmh E 1.2 mph1.9 kmh 30.02 in1016.6 mb - 0.00 in0.0 mm 0.00 in0.0 mm
07:30 PM 44.0°F6.7°C 41.2°F5.1°C 90% 1.2 mph E1.9 kmh E 6.9 mph11.1 kmh 30.02 in1016.6 mb - 0.00 in0.0 mm 0.00 in0.0 mm
07:40 PM 44.0°F6.7°C 41.3°F5.2°C 90% Calm Calm -- 30.02 in1016.6 mb - 0.00 in0.0 mm 0.00 in0.0 mm
07:50 PM 44.0°F6.7°C 41.3°F5.2°C 90% 1.2 mph SE1.9 kmh SE 8.1 mph13.0 kmh 30.02 in1016.6 mb - 0.00 in0.0 mm 0.00 in0.0 mm
08:00 PM 44.0°F6.7°C 41.3°F5.2°C 90% Calm Calm 6.9 mph11.1 kmh 30.02 in1016.6 mb - 0.00 in0.0 mm 0.00 in0.0 mm
08:10 PM 44.0°F6.7°C 41.3°F5.2°C 90% 2.3 mph ESE3.7 kmh ESE 10.4 mph16.7 kmh 30.02 in1016.6 mb - 0.00 in0.0 mm 0.00 in0.0 mm
08:20 PM 44.1°F6.7°C 41.3°F5.2°C 90% 2.3 mph SE3.7 kmh SE 4.6 mph7.4 kmh 30.02 in1016.6 mb - 0.00 in0.0 mm 0.00 in0.0 mm
08:30 PM 44.1°F6.7°C 41.1°F5.1°C 89% 1.2 mph ESE1.9 kmh ESE 1.2 mph1.9 kmh 30.02 in1016.6 mb - 0.00 in0.0 mm 0.00 in0.0 mm
08:40 PM 44.1°F6.7°C 41.0°F5.0°C 89% Calm Calm 5.8 mph9.3 kmh 30.02 in1016.6 mb - 0.00 in0.0 mm 0.00 in0.0 mm
08:50 PM 44.1°F6.7°C 41.1°F5.1°C 89% Calm Calm 3.5 mph5.6 kmh 30.02 in1016.6 mb - 0.00 in0.0 mm 0.00 in0.0 mm
09:00 PM 44.0°F6.7°C 41.0°F5.0°C 89% 1.2 mph E1.9 kmh E 8.1 mph13.0 kmh 30.02 in1016.6 mb - 0.00 in0.0 mm 0.00 in0.0 mm
09:10 PM 43.9°F6.6°C 40.9°F4.9°C 89% Calm Calm -- 30.02 in1016.6 mb - 0.00 in0.0 mm 0.00 in0.0 mm
09:20 PM 43.7°F6.5°C 40.7°F4.8°C 89% Calm Calm 4.6 mph7.4 kmh 30.03 in1016.9 mb - 0.00 in0.0 mm 0.00 in0.0 mm
09:30 PM 43.5°F6.4°C 40.8°F4.9°C 90% 1.2 mph E1.9 kmh E 3.5 mph5.6 kmh 30.03 in1016.9 mb - 0.00 in0.0 mm 0.00 in0.0 mm
09:40 PM 43.4°F6.3°C 40.7°F4.8°C 90% Calm Calm 8.1 mph13.0 kmh 30.03 in1016.9 mb - 0.00 in0.0 mm 0.00 in0.0 mm
09:50 PM 43.4°F6.3°C 40.7°F4.8°C 90% Calm Calm -- 30.03 in1016.9 mb - 0.00 in0.0 mm 0.00 in0.0 mm
10:00 PM 43.3°F6.3°C 40.6°F4.8°C 90% 1.2 mph E1.9 kmh E 4.6 mph7.4 kmh 30.03 in1016.9 mb - 0.00 in0.0 mm 0.00 in0.0 mm
10:10 PM 43.3°F6.3°C 40.3°F4.6°C 89% 2.3 mph E3.7 kmh E 8.1 mph13.0 kmh 30.03 in1016.9 mb - 0.00 in0.0 mm 0.00 in0.0 mm
10:20 PM 43.3°F6.3°C 40.3°F4.6°C 89% Calm Calm 4.6 mph7.4 kmh 30.03 in1016.9 mb - 0.00 in0.0 mm 0.00 in0.0 mm
10:30 PM 43.2°F6.2°C 39.9°F4.4°C 88% 1.2 mph E1.9 kmh E 3.5 mph5.6 kmh 30.03 in1016.9 mb - 0.00 in0.0 mm 0.00 in0.0 mm
10:40 PM 43.1°F6.2°C 39.8°F4.3°C 88% 1.2 mph ESE1.9 kmh ESE 2.3 mph3.7 kmh 30.04 in1017.3 mb - 0.00 in0.0 mm 0.00 in0.0 mm
10:50 PM 43.1°F6.2°C 39.8°F4.3°C 88% Calm Calm 5.8 mph9.3 kmh 30.03 in1016.9 mb - 0.00 in0.0 mm 0.00 in0.0 mm
11:00 PM 43.0°F6.1°C 39.7°F4.3°C 88% Calm Calm -- 30.04 in1017.3 mb - 0.00 in0.0 mm 0.00 in0.0 mm
11:10 PM 42.9°F6.1°C 39.6°F4.2°C 88% 2.3 mph E3.7 kmh E 8.1 mph13.0 kmh 30.04 in1017.3 mb - 0.00 in0.0 mm 0.00 in0.0 mm
11:20 PM 42.7°F5.9°C 39.7°F4.3°C 89% 1.2 mph E1.9 kmh E 4.6 mph7.4 kmh 30.04 in1017.3 mb - 0.00 in0.0 mm 0.00 in0.0 mm
11:30 PM 42.6°F5.9°C 39.6°F4.2°C 89% Calm Calm 2.3 mph3.7 kmh 30.04 in1017.3 mb - 0.00 in0.0 mm 0.00 in0.0 mm
11:40 PM 42.5°F5.8°C 39.5°F4.2°C 89% Calm Calm -- 30.04 in1017.3 mb - 0.00 in0.0 mm 0.00 in0.0 mm
11:50 PM 42.4°F5.8°C 39.4°F4.1°C 89% Calm Calm 2.3 mph3.7 kmh 30.04 in1017.3 mb - 0.00 in0.0 mm 0.00 in0.0 mm